Stigler, OK

1:58 PM CDT on March 26, 2017 (GMT -0500)
Stigler

Weather History for KGZL - March, 2014

Change the Weather History Date:

Sunday, March 16, 2014

  Actual Average (KJSV) Record (KJSV)
Temperature  
Mean Temperature 46 °F -  
Max Temperature 57 °F 64 °F 82 °F (1982)
Min Temperature 35 °F 40 °F 22 °F (1988)
Degree Days  
Heating Degree Days 19    
Moisture  
Dew Point 39 °F    
Average Humidity 83    
Maximum Humidity 100    
Minimum Humidity 65    
Precipitation  
Precipitation 0.30 in - - ()
Sea Level Pressure  
Sea Level Pressure 29.89 in    
Wind  
Wind Speed 16 mph (North)    
Max Wind Speed 31 mph    
Max Gust Speed 43 mph    
Visibility 8 miles    
Events Rain    
Averages and records for this station are not official NWS values.
T = Trace of Precipitation, MM = Missing Value Source: NWS Daily Summary

Daily Weather History Graph

Daily Weather History Graph

Search for Another Location

Airport or City:

Trip Planner

Search our weather history database for the weather conditions in past years. The results will help you decide how hot, cold, wet, or windy it might be!

Date:

Astronomy

Mar. 16, 2014 Rise Set
Actual Time 7:29 AM CDT 7:28 PM CDT
Civil Twilight 7:04 AM CDT 7:54 PM CDT
Nautical Twilight 6:34 AM CDT 8:23 PM CDT
Astronomical Twilight 6:05 AM CDT 8:53 PM CDT
Moon 7:45 PM CDT (3/16) 7:14 AM CDT (3/16)
Length of Visible Light 12h 49m
Length of Day
11h 59m
Full, 100% of the Moon is Illuminated
Mar 16
Full
Mar 16
Full
Mar 23
Last Quarter
Mar 30
New
Apr 7
First Quarter

Hourly Weather History & Observations

Time (CDT) Temp. Windchill Dew Point Humidity Pressure Visibility Wind Dir Wind Speed Gust Speed Precip Events Conditions
12:15 AM 57.2 °F - 57.2 °F 100% 29.75 in 3.0 mi East 8.1 mph - 0.05 in Rain Rain
12:35 AM 57.2 °F - 57.2 °F 100% 29.73 in 3.0 mi ENE 10.4 mph - 0.09 in Rain Light Rain
12:55 AM 55.4 °F - 55.4 °F 100% 29.72 in 7.0 mi ENE 6.9 mph - 0.14 in Rain Light Rain
1:15 AM 55.4 °F - 55.4 °F 100% 29.71 in 5.0 mi NE 6.9 mph - N/A   Overcast
1:35 AM 55.4 °F - 55.4 °F 100% 29.70 in 7.0 mi NE 6.9 mph - N/A   Overcast
1:55 AM 55.4 °F - 55.4 °F 100% 29.70 in 8.0 mi North 8.1 mph - N/A   Overcast
2:15 AM 55.4 °F - 55.4 °F 100% 29.70 in 8.0 mi North 8.1 mph - N/A   Overcast
2:35 AM 55.4 °F - 55.4 °F 100% 29.70 in 7.0 mi North 11.5 mph 16.1 mph N/A   Overcast
2:55 AM 55.4 °F - 55.4 °F 100% 29.69 in 3.0 mi North 13.8 mph - N/A Rain Light Rain
3:15 AM 53.6 °F - 53.6 °F 100% 29.69 in 3.0 mi North 16.1 mph - 0.01 in Rain Light Rain
3:35 AM 53.6 °F - 53.6 °F 100% 29.68 in 5.0 mi NNW 15.0 mph 26.5 mph 0.01 in Rain Light Rain
3:55 AM 53.6 °F - 53.6 °F 100% 29.67 in 3.0 mi NNW 20.7 mph 27.6 mph 0.02 in Rain Light Rain
4:15 AM 53.6 °F - 53.6 °F 100% 29.68 in 3.0 mi NNW 20.7 mph 29.9 mph 0.03 in Rain Light Rain
4:35 AM 53.6 °F - 53.6 °F 100% 29.68 in 7.0 mi NW 18.4 mph 26.5 mph 0.07 in Rain Light Rain
4:55 AM 53.6 °F - 53.6 °F 100% 29.68 in 6.0 mi NW 19.6 mph 26.5 mph 0.09 in Rain Light Rain
5:15 AM 53.6 °F - 53.6 °F 100% 29.68 in 8.0 mi NW 15.0 mph 25.3 mph N/A Rain Light Rain
5:35 AM 53.6 °F - 53.6 °F 100% 29.68 in 10.0 mi NW 17.3 mph 23.0 mph N/A   Overcast
5:55 AM 53.6 °F - 53.6 °F 100% 29.69 in 10.0 mi NNW 18.4 mph 24.2 mph 0.01 in Rain Light Rain
6:15 AM 53.6 °F - 53.6 °F 100% 29.70 in 9.0 mi NNW 20.7 mph 29.9 mph N/A   Overcast
6:35 AM 51.8 °F - 50.0 °F 94% 29.70 in 10.0 mi NNW 24.2 mph 33.4 mph N/A   Overcast
6:55 AM 51.8 °F - 50.0 °F 94% 29.71 in 10.0 mi NNW 26.5 mph 36.8 mph N/A   Overcast
7:15 AM 50.0 °F - 46.4 °F 87% 29.72 in 10.0 mi NNW 31.1 mph 42.6 mph N/A   Overcast
7:35 AM 48.2 °F - 44.6 °F 87% 29.74 in 10.0 mi NNW 25.3 mph 42.6 mph N/A   Overcast
7:55 AM 46.4 °F 38.3 °F 42.8 °F 87% 29.77 in 10.0 mi NNW 23.0 mph 35.7 mph N/A   Overcast
8:15 AM 44.6 °F 35.7 °F 41.0 °F 87% 29.79 in 8.0 mi NNW 24.2 mph 38.0 mph N/A   Overcast
8:35 AM 44.6 °F 34.9 °F 41.0 °F 87% 29.81 in 3.0 mi NNW 28.8 mph 34.5 mph N/A Rain Light Rain
8:55 AM 42.8 °F 33.8 °F 39.2 °F 87% 29.83 in 3.0 mi NNW 21.9 mph 36.8 mph 0.03 in Rain Light Rain
9:15 AM 41.0 °F 31.6 °F 37.4 °F 87% 29.85 in 4.0 mi NNW 20.7 mph 32.2 mph 0.01 in Rain Light Rain
9:35 AM 41.0 °F 31.6 °F 37.4 °F 87% 29.87 in 5.0 mi NNW 20.7 mph 38.0 mph 0.01 in Rain Light Rain
9:55 AM 39.2 °F 29.3 °F 37.4 °F 93% 29.89 in 7.0 mi NNW 20.7 mph 33.4 mph 0.01 in   Overcast
10:15 AM 39.2 °F 28.5 °F 35.6 °F 87% 29.89 in 10.0 mi NNW 24.2 mph 29.9 mph N/A   Overcast
10:35 AM 39.2 °F 28.3 °F 35.6 °F 87% 29.90 in 10.0 mi North 25.3 mph 38.0 mph N/A   Mostly Cloudy
10:55 AM 39.2 °F 29.0 °F 35.6 °F 87% 29.91 in 10.0 mi North 21.9 mph 34.5 mph N/A   Overcast
11:15 AM 39.2 °F 28.3 °F 35.6 °F 87% 29.92 in 10.0 mi North 25.3 mph 35.7 mph N/A   Overcast
11:35 AM 39.2 °F 29.6 °F 33.8 °F 81% 29.93 in 10.0 mi North 19.6 mph 33.4 mph N/A   Overcast
11:55 AM 39.2 °F 29.6 °F 32.0 °F 75% 29.94 in 10.0 mi North 19.6 mph 32.2 mph N/A   Overcast
12:15 PM 39.2 °F 28.5 °F 32.0 °F 75% 29.96 in 10.0 mi North 24.2 mph 31.1 mph N/A   Overcast
12:35 PM 39.2 °F 29.8 °F 32.0 °F 75% 29.97 in 10.0 mi North 18.4 mph 24.2 mph N/A   Overcast
12:55 PM 39.2 °F 28.0 °F 32.0 °F 75% 29.97 in 10.0 mi North 26.5 mph 29.9 mph N/A   Overcast
1:15 PM 37.4 °F 26.1 °F 32.0 °F 81% 29.97 in 10.0 mi North 24.2 mph 33.4 mph N/A   Overcast
1:35 PM 37.4 °F 26.1 °F 32.0 °F 81% 29.97 in 10.0 mi North 24.2 mph 32.2 mph N/A   Overcast
1:55 PM 37.4 °F 28.5 °F 32.0 °F 81% 29.98 in 10.0 mi North 15.0 mph 29.9 mph N/A   Overcast
2:15 PM 37.4 °F 27.2 °F 32.0 °F 81% 29.98 in 10.0 mi North 19.6 mph 34.5 mph N/A   Overcast
2:35 PM 37.4 °F 27.2 °F 32.0 °F 81% 29.99 in 10.0 mi North 19.6 mph 32.2 mph N/A   Overcast
2:55 PM 37.4 °F 26.4 °F 30.2 °F 75% 30.00 in 10.0 mi North 23.0 mph 31.1 mph N/A   Overcast
3:15 PM 37.4 °F 26.9 °F 30.2 °F 75% 30.01 in 10.0 mi North 20.7 mph 26.5 mph N/A   Overcast
3:35 PM 37.4 °F 28.5 °F 28.4 °F 70% 30.01 in 10.0 mi NNE 15.0 mph 27.6 mph N/A   Overcast
3:55 PM 37.4 °F 28.5 °F 30.2 °F 75% 30.00 in 10.0 mi North 15.0 mph 26.5 mph N/A   Overcast
4:15 PM 37.4 °F 27.5 °F 30.2 °F 75% 30.00 in 10.0 mi NNE 18.4 mph 25.3 mph N/A   Overcast
4:35 PM 39.2 °F 29.3 °F 30.2 °F 70% 30.00 in 10.0 mi NNE 20.7 mph 26.5 mph N/A   Overcast
4:55 PM 39.2 °F 29.8 °F 30.2 °F 70% 29.99 in 10.0 mi North 18.4 mph - N/A   Overcast
5:15 PM 37.4 °F 26.9 °F 28.4 °F 70% 29.99 in 10.0 mi NNE 20.7 mph 27.6 mph N/A   Overcast
5:35 PM 39.2 °F 29.0 °F 28.4 °F 65% 30.00 in 10.0 mi NNE 21.9 mph 28.8 mph N/A   Overcast
5:55 PM 39.2 °F 29.8 °F 28.4 °F 65% 30.00 in 10.0 mi North 18.4 mph 23.0 mph N/A   Overcast
6:15 PM 39.2 °F 30.8 °F 30.2 °F 70% 30.00 in 10.0 mi North 15.0 mph 26.5 mph N/A   Overcast
6:35 PM 37.4 °F 26.4 °F 28.4 °F 70% 30.01 in 10.0 mi North 23.0 mph - N/A   Overcast
6:55 PM 37.4 °F 28.2 °F 28.4 °F 70% 30.02 in 10.0 mi NNE 16.1 mph 27.6 mph N/A   Overcast
7:15 PM 37.4 °F 27.8 °F 30.2 °F 75% 30.03 in 10.0 mi North 17.3 mph 20.7 mph N/A   Overcast
7:35 PM 37.4 °F 28.2 °F 28.4 °F 70% 30.04 in 10.0 mi North 16.1 mph 29.9 mph N/A   Overcast
7:55 PM 37.4 °F 28.5 °F 28.4 °F 70% 30.04 in 10.0 mi North 15.0 mph 20.7 mph N/A   Overcast
8:15 PM 37.4 °F 28.5 °F 28.4 °F 70% 30.04 in 10.0 mi North 15.0 mph 23.0 mph N/A   Overcast
8:35 PM 37.4 °F 28.9 °F 30.2 °F 75% 30.05 in 10.0 mi North 13.8 mph 20.7 mph N/A   Overcast
8:55 PM 37.4 °F 28.5 °F 28.4 °F 70% 30.05 in 10.0 mi North 15.0 mph 25.3 mph N/A   Overcast
9:15 PM 37.4 °F 27.5 °F 28.4 °F 70% 30.06 in 10.0 mi North 18.4 mph 25.3 mph N/A   Overcast
9:35 PM 37.4 °F 28.5 °F 28.4 °F 70% 30.07 in 10.0 mi North 15.0 mph 23.0 mph N/A   Overcast
9:55 PM 37.4 °F 27.8 °F 28.4 °F 70% 30.07 in 10.0 mi NNE 17.3 mph 23.0 mph N/A   Overcast
10:15 PM 37.4 °F 28.5 °F 28.4 °F 70% 30.08 in 10.0 mi NNE 15.0 mph 21.9 mph N/A   Overcast
10:35 PM 37.4 °F 28.9 °F 28.4 °F 70% 30.09 in 10.0 mi NNE 13.8 mph 19.6 mph N/A   Overcast
10:55 PM 37.4 °F 30.3 °F 28.4 °F 70% 30.09 in 10.0 mi North 10.4 mph - N/A   Overcast
11:15 PM 37.4 °F 29.8 °F 28.4 °F 70% 30.09 in 10.0 mi North 11.5 mph - N/A   Overcast
11:35 PM 35.6 °F 26.6 °F 28.4 °F 75% 30.09 in 10.0 mi NNE 13.8 mph 17.3 mph N/A   Overcast
11:55 PM 35.6 °F 27.1 °F 28.4 °F 75% 30.08 in 10.0 mi NNE 12.7 mph - N/A   Overcast